Time;durP1;ratioP1;P1;durP2;ratioP2;P2;SDS_P1;SDS_P2;PMS_P1;PMS_P2;Temp;Humidity;BMP_temperature;BMP_pressure;BME280_temperature;BME280_humidity;BME280_pressure;Samples;Min_cycle;Max_cycle;Signal;HPM_P1;HPM_P2
2022/05/09 00:01:35;;;;;;;11.57;10.47;;;13.50;99.90;;;;;;5095979;28;20235;-83
2022/05/09 00:04:02;;;;;;;11.27;10.27;;;13.50;99.90;;;;;;5096190;28;20605;-83
2022/05/09 00:06:30;;;;;;;12.90;11.43;;;13.40;99.90;;;;;;5077897;28;20203;-82
2022/05/09 00:08:57;;;;;;;11.87;10.77;;;13.50;99.90;;;;;;5096415;28;20200;-82
2022/05/09 00:11:24;;;;;;;12.17;11.00;;;13.40;99.90;;;;;;5096199;28;20199;-81
2022/05/09 00:13:51;;;;;;;12.10;11.00;;;13.40;99.90;;;;;;5095890;28;20246;-82
2022/05/09 00:16:18;;;;;;;11.87;10.67;;;13.30;99.90;;;;;;5095979;28;20196;-83
2022/05/09 00:18:44;;;;;;;13.10;11.23;;;13.30;99.90;;;;;;5095647;28;20200;-83
2022/05/09 00:21:11;;;;;;;11.43;10.37;;;13.20;99.90;;;;;;5095705;28;20236;-83
2022/05/09 00:23:39;;;;;;;11.70;10.60;;;13.10;99.90;;;;;;5095866;28;20204;-83
2022/05/09 00:26:07;;;;;;;13.63;10.37;;;13.00;99.90;;;;;;5095688;28;20197;-83
2022/05/09 00:28:34;;;;;;;11.77;10.57;;;12.90;99.90;;;;;;5095621;28;20279;-83
2022/05/09 00:31:01;;;;;;;12.23;10.97;;;12.80;99.90;;;;;;5095736;28;20200;-83
2022/05/09 00:33:28;;;;;;;12.50;11.13;;;12.80;99.90;;;;;;5095544;28;20270;-83
2022/05/09 00:35:54;;;;;;;12.43;11.33;;;12.80;99.90;;;;;;5095392;28;20196;-83
2022/05/09 00:38:21;;;;;;;12.43;11.33;;;12.80;99.90;;;;;;5095716;28;20197;-83
2022/05/09 00:43:37;;;;;;;13.60;12.23;;;12.60;99.90;;;;;;5095615;28;20222;-84
2022/05/09 00:46:04;;;;;;;13.30;12.00;;;12.60;99.90;;;;;;5111606;28;20230;-83
2022/05/09 00:48:31;;;;;;;12.87;11.67;;;12.50;99.90;;;;;;5120214;28;20196;-82
2022/05/09 00:50:58;;;;;;;13.03;11.90;;;12.40;99.90;;;;;;5117877;28;20216;-83
2022/05/09 00:53:26;;;;;;;15.17;11.67;;;12.50;99.90;;;;;;5120166;28;20184;-83
2022/05/09 00:55:57;;;;;;;13.13;11.83;;;12.40;99.90;;;;;;5117366;28;20207;-84
2022/05/09 00:58:27;;;;;;;12.10;10.90;;;12.40;99.90;;;;;;5120055;28;20297;-83
2022/05/09 01:00:55;;;;;;;11.83;10.63;;;12.40;99.90;;;;;;5104553;28;20228;-83
2022/05/09 01:03:28;;;;;;;11.60;10.50;;;12.50;99.90;;;;;;5097789;28;20610;-84
2022/05/09 01:05:54;;;;;;;11.80;10.70;;;12.50;99.90;;;;;;5097407;28;20200;-83
2022/05/09 01:08:22;;;;;;;11.97;10.77;;;12.60;99.90;;;;;;5096767;28;20193;-84
2022/05/09 01:10:49;;;;;;;12.57;11.07;;;12.60;99.90;;;;;;5095694;28;20239;-84
2022/05/09 01:13:21;;;;;;;11.73;10.57;;;12.50;99.90;;;;;;5095410;28;20532;-84
2022/05/09 01:15:51;;;;;;;11.70;10.70;;;12.50;99.90;;;;;;5095522;28;20196;-83
2022/05/09 01:18:17;;;;;;;11.73;10.63;;;12.50;99.90;;;;;;5097478;28;20195;-82
2022/05/09 01:20:44;;;;;;;12.33;11.13;;;12.40;99.90;;;;;;5096910;28;20250;-83
2022/05/09 01:23:13;;;;;;;12.67;11.47;;;12.30;99.90;;;;;;5097450;28;20309;-83
2022/05/09 01:25:40;;;;;;;13.57;12.30;;;12.20;99.90;;;;;;5098500;28;20230;-85
2022/05/09 01:28:09;;;;;;;12.53;11.37;;;12.20;99.90;;;;;;5100334;28;20241;-85
2022/05/09 01:30:42;;;;;;;13.03;11.83;;;12.10;99.90;;;;;;5099493;28;20192;-83
2022/05/09 01:33:13;;;;;;;13.23;11.93;;;12.10;99.90;;;;;;5100381;28;20738;-84
2022/05/09 01:35:46;;;;;;;13.83;12.57;;;12.00;99.90;;;;;;5099287;28;20199;-84
2022/05/09 01:38:20;;;;;;;14.93;12.40;;;12.00;99.90;;;;;;5097879;28;20226;-84
2022/05/09 01:40:47;;;;;;;15.03;13.40;;;11.90;99.90;;;;;;5097728;28;20200;-83
2022/05/09 01:43:14;;;;;;;14.10;12.80;;;11.80;99.90;;;;;;5096499;28;20196;-85
2022/05/09 01:45:40;;;;;;;14.00;12.70;;;11.70;99.90;;;;;;5094556;28;20242;-84
2022/05/09 01:50:56;;;;;;;14.70;13.20;;;11.70;99.90;;;;;;5055429;28;20229;-84
2022/05/09 01:53:24;;;;;;;15.90;14.40;;;11.60;99.90;;;;;;5094490;28;20204;-84
2022/05/09 01:55:51;;;;;;;16.37;14.60;;;11.50;99.90;;;;;;5094227;28;20647;-85
2022/05/09 01:58:18;;;;;;;17.23;14.57;;;11.40;99.90;;;;;;5094137;28;20253;-85
2022/05/09 02:00:45;;;;;;;17.20;15.50;;;11.40;99.90;;;;;;5093990;28;20245;-85
2022/05/09 02:03:11;;;;;;;18.63;15.33;;;11.40;99.90;;;;;;5094273;28;20196;-85
2022/05/09 02:05:38;;;;;;;17.73;16.07;;;11.50;99.90;;;;;;5093744;28;20725;-85
2022/05/09 02:08:05;;;;;;;17.63;15.83;;;11.50;99.90;;;;;;5093028;28;20206;-85
2022/05/09 02:10:33;;;;;;;17.17;15.47;;;11.60;99.90;;;;;;5094113;28;20618;-85
2022/05/09 02:13:00;;;;;;;18.77;15.50;;;11.60;99.90;;;;;;5093950;28;20197;-85
2022/05/09 02:15:31;;;;;;;17.60;15.90;;;11.70;99.90;;;;;;5093844;28;20192;-85
2022/05/09 02:17:58;;;;;;;17.37;15.67;;;11.60;99.90;;;;;;5094064;28;20228;-85
2022/05/09 02:20:25;;;;;;;16.30;14.80;;;11.60;99.90;;;;;;5093929;28;20196;-85
2022/05/09 02:22:51;;;;;;;17.70;15.80;;;11.50;99.90;;;;;;5093750;28;20270;-85
2022/05/09 02:28:01;;;;;;;17.13;15.50;;;11.40;99.90;;;;;;5090073;28;20192;-85
2022/05/09 02:30:29;;;;;;;16.67;14.90;;;11.30;99.90;;;;;;5076276;28;20204;-85
2022/05/09 02:32:56;;;;;;;18.37;16.47;;;11.30;99.90;;;;;;5093652;28;20204;-85
2022/05/09 02:35:23;;;;;;;18.33;16.40;;;11.20;99.90;;;;;;5093948;28;20493;-85
2022/05/09 02:37:52;;;;;;;19.17;17.17;;;11.10;99.90;;;;;;5093862;28;20200;-85
2022/05/09 02:40:19;;;;;;;18.07;16.33;;;11.00;99.90;;;;;;5093564;28;20203;-85
2022/05/09 02:42:46;;;;;;;18.17;16.37;;;10.90;99.90;;;;;;5075710;28;20230;-85
2022/05/09 02:45:14;;;;;;;19.90;17.80;;;10.90;99.90;;;;;;5093775;28;20598;-85
2022/05/09 02:47:41;;;;;;;21.30;19.17;;;11.00;99.90;;;;;;5094371;28;20229;-86
2022/05/09 02:50:09;;;;;;;20.60;18.37;;;10.90;99.90;;;;;;5094121;28;20632;-86
2022/05/09 02:52:36;;;;;;;21.87;19.57;;;10.80;99.90;;;;;;5076113;28;20231;-86
2022/05/09 02:55:03;;;;;;;23.57;21.07;;;10.70;99.90;;;;;;5094800;28;20218;-86
2022/05/09 02:57:30;;;;;;;23.57;20.93;;;10.60;99.90;;;;;;5094603;28;20199;-86
2022/05/09 02:59:57;;;;;;;23.43;20.00;;;10.50;99.90;;;;;;5095166;28;20196;-86
2022/05/09 03:02:25;;;;;;;22.57;20.30;;;10.40;99.90;;;;;;5112432;28;20216;-86
2022/05/09 03:04:51;;;;;;;23.43;19.87;;;10.40;99.90;;;;;;5118442;28;20212;-85
2022/05/09 03:07:19;;;;;;;21.63;19.33;;;10.40;99.90;;;;;;5099189;28;20218;-85
2022/05/09 03:09:48;;;;;;;22.17;19.87;;;10.30;99.90;;;;;;5116782;28;20176;-85
2022/05/09 03:12:18;;;;;;;22.77;20.40;;;10.20;99.90;;;;;;5118452;28;20188;-84
2022/05/09 03:14:46;;;;;;;22.83;20.53;;;10.20;99.90;;;;;;5118410;28;20180;-85
2022/05/09 03:17:14;;;;;;;22.70;20.43;;;10.30;99.90;;;;;;5101473;28;20203;-86
2022/05/09 03:19:42;;;;;;;22.17;19.77;;;10.50;99.90;;;;;;5098711;28;20192;-86
2022/05/09 03:22:09;;;;;;;24.40;21.83;;;10.40;99.90;;;;;;5097348;28;20224;-86
2022/05/09 03:24:36;;;;;;;23.70;20.70;;;10.30;99.90;;;;;;5097111;28;20200;-86
2022/05/09 03:27:04;;;;;;;23.87;21.47;;;10.30;99.90;;;;;;5097038;28;20196;-85
2022/05/09 03:29:32;;;;;;;23.07;20.67;;;10.20;99.90;;;;;;5097192;28;20200;-86
2022/05/09 03:31:59;;;;;;;23.00;20.60;;;10.10;99.90;;;;;;5097099;28;20273;-86
2022/05/09 03:34:25;;;;;;;22.63;20.43;;;10.10;99.90;;;;;;5097030;28;20207;-86
2022/05/09 03:36:54;;;;;;;24.43;21.83;;;10.10;99.90;;;;;;5096979;28;20640;-85
2022/05/09 03:39:21;;;;;;;23.60;21.03;;;10.10;99.90;;;;;;5097128;28;20554;-86
2022/05/09 03:41:47;;;;;;;23.43;21.03;;;10.00;99.90;;;;;;5097091;28;20273;-86
2022/05/09 03:44:14;;;;;;;23.90;21.40;;;10.10;99.90;;;;;;5097390;28;20223;-86
2022/05/09 03:46:41;;;;;;;24.57;22.07;;;10.00;99.90;;;;;;5097296;28;20504;-87
2022/05/09 03:49:08;;;;;;;24.67;22.27;;;9.90;99.90;;;;;;5101520;28;20203;-86
2022/05/09 03:51:35;;;;;;;26.03;23.30;;;9.80;99.90;;;;;;5104899;28;20239;-87
2022/05/09 03:54:03;;;;;;;27.03;24.20;;;10.00;99.90;;;;;;5100201;28;20574;-86
2022/05/09 03:56:30;;;;;;;26.27;23.13;;;10.10;99.90;;;;;;5097983;28;20283;-86
2022/05/09 03:58:58;;;;;;;26.83;22.90;;;10.00;99.90;;;;;;5097608;28;20253;-86
2022/05/09 04:01:25;;;;;;;28.33;23.30;;;10.00;99.90;;;;;;5096960;28;20196;-86
2022/05/09 04:03:52;;;;;;;25.20;22.50;;;9.90;99.90;;;;;;5097418;28;20200;-86
2022/05/09 04:06:18;;;;;;;25.50;21.67;;;9.80;99.90;;;;;;5101044;28;20203;-86
2022/05/09 04:08:45;;;;;;;27.67;23.43;;;9.90;99.90;;;;;;5105705;28;20204;-86
2022/05/09 04:11:13;;;;;;;26.60;23.80;;;9.90;99.90;;;;;;5107910;28;20200;-86
2022/05/09 04:13:40;;;;;;;25.40;22.43;;;9.90;99.90;;;;;;5119694;28;20257;-85
2022/05/09 04:18:55;;;;;;;26.23;23.17;;;10.00;99.90;;;;;;5118052;28;20248;-85
2022/05/09 04:21:22;;;;;;;27.00;23.77;;;10.10;99.90;;;;;;5116057;28;20640;-86
2022/05/09 04:23:50;;;;;;;28.50;24.57;;;10.10;99.90;;;;;;5113655;28;20200;-85
2022/05/09 04:26:18;;;;;;;24.93;22.33;;;10.20;99.90;;;;;;5115163;28;20200;-85
2022/05/09 04:28:45;;;;;;;28.97;23.47;;;10.30;99.90;;;;;;5103031;28;20200;-86
2022/05/09 04:31:11;;;;;;;25.53;22.13;;;10.40;99.90;;;;;;5079631;28;20728;-86
2022/05/09 04:33:38;;;;;;;24.57;21.97;;;10.40;99.90;;;;;;5096738;28;20204;-85
2022/05/09 04:36:06;;;;;;;23.07;20.77;;;10.50;99.90;;;;;;5096292;28;20196;-86
2022/05/09 04:38:34;;;;;;;23.77;20.90;;;10.60;99.90;;;;;;5095804;28;20249;-86
2022/05/09 04:41:02;;;;;;;22.27;19.90;;;10.60;99.90;;;;;;5095787;28;20200;-85
2022/05/09 04:43:31;;;;;;;25.43;19.33;;;10.70;99.90;;;;;;5095999;28;20224;-85
2022/05/09 04:45:59;;;;;;;21.47;19.17;;;10.80;99.90;;;;;;5096008;28;20239;-85
2022/05/09 04:48:26;;;;;;;21.40;18.17;;;10.80;99.90;;;;;;5095593;28;20196;-86
2022/05/09 04:50:53;;;;;;;22.23;18.57;;;10.90;99.90;;;;;;5095421;28;20285;-86
2022/05/09 04:53:20;;;;;;;22.53;19.37;;;11.00;99.90;;;;;;5095876;28;20200;-86
2022/05/09 04:55:47;;;;;;;19.60;17.50;;;11.10;99.90;;;;;;5096009;28;20222;-85
2022/05/09 04:58:17;;;;;;;21.00;18.73;;;11.10;99.90;;;;;;5095582;28;20249;-86
2022/05/09 05:00:45;;;;;;;22.17;18.07;;;11.20;99.90;;;;;;5095242;28;20205;-85
2022/05/09 05:03:12;;;;;;;21.23;17.87;;;11.20;99.90;;;;;;5095460;28;20228;-85
2022/05/09 05:05:39;;;;;;;19.97;17.87;;;11.30;99.90;;;;;;5095773;28;20200;-85
2022/05/09 05:08:07;;;;;;;20.47;17.17;;;11.40;99.90;;;;;;5095074;28;20656;-85
2022/05/09 05:10:33;;;;;;;19.07;17.27;;;11.50;99.90;;;;;;5095778;28;20716;-85
2022/05/09 05:13:03;;;;;;;18.30;16.40;;;11.60;99.90;;;;;;5095483;28;20196;-85
2022/05/09 05:15:30;;;;;;;17.87;15.87;;;11.70;99.90;;;;;;5095619;28;20216;-85
2022/05/09 05:17:58;;;;;;;16.90;15.20;;;11.80;99.90;;;;;;5095457;28;20200;-84
2022/05/09 05:20:26;;;;;;;18.13;14.77;;;11.90;99.90;;;;;;5094817;28;20200;-84
2022/05/09 05:22:54;;;;;;;15.93;14.40;;;12.00;99.90;;;;;;5094693;28;20269;-84
2022/05/09 05:25:24;;;;;;;18.00;13.90;;;12.10;99.90;;;;;;5095126;28;20553;-85
2022/05/09 05:27:51;;;;;;;15.43;13.80;;;12.20;99.90;;;;;;5095092;28;20196;-84
2022/05/09 05:30:19;;;;;;;16.23;13.13;;;12.30;99.90;;;;;;5094781;28;20200;-84
2022/05/09 05:32:47;;;;;;;13.97;12.60;;;12.40;99.90;;;;;;5094535;28;20681;-84
2022/05/09 05:35:18;;;;;;;14.33;12.83;;;12.60;99.90;;;;;;5095104;28;20192;-84
2022/05/09 05:37:45;;;;;;;14.43;12.93;;;12.70;99.90;;;;;;5095596;28;20253;-84
2022/05/09 05:40:12;;;;;;;13.07;11.77;;;12.70;99.90;;;;;;5094789;28;20196;-84
2022/05/09 05:42:40;;;;;;;13.03;11.83;;;12.90;99.90;;;;;;5094513;28;20224;-84
2022/05/09 05:45:09;;;;;;;13.73;12.40;;;13.00;99.90;;;;;;5094923;28;20196;-84
2022/05/09 05:47:37;;;;;;;13.07;11.73;;;13.00;99.90;;;;;;5094828;28;20200;-83
2022/05/09 05:50:04;;;;;;;13.60;11.30;;;13.10;99.90;;;;;;5095687;28;20200;-83
2022/05/09 05:52:32;;;;;;;13.47;12.17;;;13.20;99.90;;;;;;5095483;28;20196;-84
2022/05/09 05:55:01;;;;;;;13.37;11.77;;;13.30;99.90;;;;;;5095046;28;20200;-85
2022/05/09 05:57:31;;;;;;;13.53;11.73;;;13.30;99.90;;;;;;5094687;28;20273;-83
2022/05/09 05:59:59;;;;;;;16.90;10.60;;;13.40;99.90;;;;;;5094581;28;20196;-83
2022/05/09 06:02:27;;;;;;;11.93;10.73;;;13.50;99.90;;;;;;5094420;28;20273;-82
2022/05/09 06:04:55;;;;;;;13.17;11.83;;;13.60;99.90;;;;;;5094365;28;20200;-83
2022/05/09 06:07:22;;;;;;;13.50;12.10;;;13.70;99.90;;;;;;5094763;28;20225;-83
2022/05/09 06:09:51;;;;;;;12.37;11.07;;;13.70;99.90;;;;;;5083194;28;20196;-82
2022/05/09 06:12:20;;;;;;;16.30;11.93;;;13.80;99.90;;;;;;5109928;28;20253;-82
2022/05/09 06:15:24;;;;;;;12.47;11.13;;;13.90;99.90;;;;;;5094111;28;20196;-82
2022/05/09 06:17:36;;;;;;;13.30;11.03;;;14.00;99.90;;;;;;5094008;28;20719;-83
2022/05/09 06:20:05;;;;;;;12.90;11.17;;;14.00;99.90;;;;;;5094050;28;20196;-83
2022/05/09 06:22:32;;;;;;;11.70;10.47;;;14.10;99.90;;;;;;5075949;28;20220;-83
2022/05/09 06:25:02;;;;;;;11.40;10.30;;;14.20;99.90;;;;;;5094022;28;20291;-84
2022/05/09 06:27:28;;;;;;;12.70;11.10;;;14.30;99.90;;;;;;5093707;28;20214;-83
2022/05/09 06:29:55;;;;;;;12.70;11.50;;;14.40;99.90;;;;;;5093908;28;20204;-83
2022/05/09 06:32:25;;;;;;;15.77;11.40;;;14.50;99.90;;;;;;5094849;28;20200;-83
2022/05/09 06:34:52;;;;;;;13.00;11.80;;;14.50;99.90;;;;;;5093907;28;20220;-83
2022/05/09 06:37:19;;;;;;;12.73;11.50;;;14.60;99.90;;;;;;5093909;28;20264;-83
2022/05/09 06:39:46;;;;;;;12.57;11.27;;;14.60;99.90;;;;;;5093682;28;20704;-83
2022/05/09 06:42:14;;;;;;;13.70;11.97;;;14.70;99.90;;;;;;5094165;28;20241;-83
2022/05/09 06:44:41;;;;;;;12.87;11.57;;;14.80;99.90;;;;;;5094259;28;20200;-83
2022/05/09 06:47:07;;;;;;;13.37;10.93;;;14.90;99.90;;;;;;5093912;28;20212;-82
2022/05/09 06:49:34;;;;;;;11.97;10.50;;;15.00;99.90;;;;;;5094047;28;20258;-82
2022/05/09 06:52:01;;;;;;;12.23;10.93;;;15.10;99.90;;;;;;5100352;28;20212;-82
2022/05/09 06:54:27;;;;;;;17.53;11.90;;;15.10;99.90;;;;;;5120247;28;20230;-81
2022/05/09 06:56:54;;;;;;;12.30;10.57;;;15.20;99.90;;;;;;5107458;28;20230;-83
2022/05/09 06:59:23;;;;;;;12.37;11.27;;;15.30;99.90;;;;;;5122871;28;20184;-81
2022/05/09 07:01:50;;;;;;;12.20;11.10;;;15.40;99.90;;;;;;5124256;27;20175;-82
2022/05/09 07:04:17;;;;;;;12.40;11.20;;;15.50;99.90;;;;;;5122345;28;20216;-83
2022/05/09 07:06:44;;;;;;;12.67;11.37;;;15.60;99.90;;;;;;5123964;28;20184;-83
2022/05/09 07:09:12;;;;;;;12.70;11.40;;;15.70;99.90;;;;;;5114832;28;20705;-82
2022/05/09 07:11:40;;;;;;;12.40;11.20;;;15.80;99.90;;;;;;5102527;28;20202;-83
2022/05/09 07:14:07;;;;;;;17.10;10.83;;;15.80;99.90;;;;;;5100922;28;20224;-83
2022/05/09 07:16:36;;;;;;;13.70;12.30;;;15.90;99.90;;;;;;5100420;28;20200;-83
2022/05/09 07:19:03;;;;;;;11.10;10.00;;;16.00;99.90;;;;;;5099964;28;20199;-83
2022/05/09 07:21:31;;;;;;;13.73;11.10;;;16.10;99.90;;;;;;5100288;28;20667;-83
2022/05/09 07:23:58;;;;;;;12.65;11.48;;;16.20;99.90;;;;;;5100417;28;20228;-83
2022/05/09 07:26:24;;;;;;;11.43;10.25;;;16.30;99.90;;;;;;5100460;28;20647;-82
2022/05/09 07:28:51;;;;;;;11.45;10.13;;;16.40;99.90;;;;;;5101478;28;20196;-83
2022/05/09 07:31:18;;;;;;;11.57;9.88;;;16.70;99.90;;;;;;5100937;28;20204;-83
2022/05/09 07:33:46;;;;;;;11.02;9.65;;;16.80;99.90;;;;;;5100489;28;20196;-84
2022/05/09 07:36:12;;;;;;;11.00;9.88;;;17.00;99.90;;;;;;5100926;28;20655;-83
2022/05/09 07:38:39;;;;;;;11.63;10.40;;;17.10;99.90;;;;;;5100248;28;20230;-83
2022/05/09 07:41:05;;;;;;;13.02;9.20;;;17.20;99.90;;;;;;5102622;28;20447;-83
2022/05/09 07:43:32;;;;;;;14.52;8.68;;;17.30;99.90;;;;;;5103986;28;20232;-81
2022/05/09 07:45:59;;;;;;;12.65;10.13;;;17.60;99.90;;;;;;5107280;28;20200;-82
2022/05/09 07:48:28;;;;;;;10.45;9.45;;;17.70;99.90;;;;;;5106534;28;20196;-82
2022/05/09 07:50:58;;;;;;;10.48;9.48;;;17.80;99.90;;;;;;5099964;28;20319;-82
2022/05/09 07:53:28;;;;;;;11.73;9.73;;;17.90;99.90;;;;;;5081832;28;20280;-82
2022/05/09 07:55:55;;;;;;;9.88;8.98;;;18.00;99.90;;;;;;5099574;28;20660;-82
2022/05/09 07:58:22;;;;;;;11.98;9.80;;;18.20;99.90;;;;;;5100285;28;20657;-83
2022/05/09 08:00:49;;;;;;;10.68;9.65;;;18.30;99.90;;;;;;5099960;28;20250;-83
2022/05/09 08:03:18;;;;;;;11.20;9.60;;;18.50;99.90;;;;;;5099827;28;20253;-82
2022/05/09 08:05:45;;;;;;;9.82;8.93;;;18.70;99.90;;;;;;5098273;28;20193;-82
2022/05/09 08:08:14;;;;;;;9.57;8.57;;;18.90;99.90;;;;;;5097047;28;20248;-82
2022/05/09 08:10:42;;;;;;;10.43;9.35;;;19.00;99.90;;;;;;5097354;28;20197;-82
2022/05/09 08:13:10;;;;;;;9.48;8.60;;;19.00;99.90;;;;;;5096241;28;20208;-82
2022/05/09 08:15:37;;;;;;;9.80;8.90;;;19.30;99.90;;;;;;5095898;28;20208;-82
2022/05/09 08:18:05;;;;;;;9.60;8.60;;;19.40;99.90;;;;;;5095399;28;20203;-81
2022/05/09 08:20:33;;;;;;;10.70;8.95;;;19.60;99.90;;;;;;5096236;28;20286;-82
2022/05/09 08:23:00;;;;;;;9.38;8.43;;;19.90;99.90;;;;;;5096234;28;20224;-81
2022/05/09 08:25:28;;;;;;;9.60;8.60;;;20.10;99.90;;;;;;5096218;28;20586;-82
2022/05/09 08:27:55;;;;;;;10.07;8.05;;;20.10;99.90;;;;;;5095906;28;20601;-81
2022/05/09 08:30:22;;;;;;;9.05;8.10;;;20.20;99.90;;;;;;5095821;28;20273;-81
2022/05/09 08:32:48;;;;;;;10.77;8.50;;;20.30;99.90;;;;;;5095931;28;20200;-81
2022/05/09 08:35:17;;;;;;;8.45;7.68;;;20.40;99.90;;;;;;5095676;28;20200;-81
2022/05/09 08:37:44;;;;;;;9.40;7.20;;;20.60;99.90;;;;;;5095499;28;20204;-82
2022/05/09 08:40:11;;;;;;;8.02;7.22;;;20.90;99.90;;;;;;5096222;28;20207;-81
2022/05/09 08:42:46;;;;;;;9.07;8.15;;;21.00;99.90;;;;;;5095601;28;20228;-82
2022/05/09 08:45:20;;;;;;;9.73;8.07;;;21.20;99.90;;;;;;5095794;28;20686;-82
2022/05/09 08:47:58;;;;;;;11.32;8.93;;;21.30;99.90;;;;;;5096086;28;20200;-83
2022/05/09 08:50:30;;;;;;;10.45;7.95;;;21.50;99.90;;;;;;5095528;28;20224;-80
2022/05/09 08:53:00;;;;;;;8.13;7.43;;;21.80;99.90;;;;;;5097061;28;20727;-82
2022/05/09 08:55:32;;;;;;;8.02;7.32;;;21.80;99.90;;;;;;5105468;28;20219;-82
2022/05/09 08:58:04;;;;;;;10.25;7.38;;;22.00;99.90;;;;;;5108150;28;20201;-82
2022/05/09 09:00:32;;;;;;;8.30;7.07;;;22.00;99.90;;;;;;5097582;28;20532;-82
2022/05/09 09:03:13;;;;;;;7.75;7.05;;;22.30;99.90;;;;;;5102292;28;20196;-82
2022/05/09 09:05:43;;;;;;;8.32;7.43;;;22.60;99.90;;;;;;5096502;28;20328;-82
2022/05/09 09:08:19;;;;;;;9.73;6.97;;;22.20;98.90;;;;;;5095912;28;20600;-82
2022/05/09 09:10:53;;;;;;;7.80;6.97;;;22.40;99.90;;;;;;5095733;28;20196;-82
2022/05/09 09:13:42;;;;;;;8.20;7.35;;;22.60;99.90;;;;;;5095455;28;20532;-82
2022/05/09 09:16:26;;;;;;;9.00;8.10;;;22.50;96.30;;;;;;5094584;28;20250;-83
2022/05/09 09:19:07;;;;;;;6.57;6.07;;;21.90;98.20;;;;;;5095434;28;20249;-82
2022/05/09 09:21:45;;;;;;;10.50;7.85;;;22.30;99.90;;;;;;5095926;28;20188;-82
2022/05/09 09:24:25;;;;;;;11.20;7.25;;;23.00;97.50;;;;;;5094951;28;20224;-83
2022/05/09 09:27:01;;;;;;;8.10;6.88;;;23.50;96.30;;;;;;5094980;28;20203;-82
2022/05/09 09:29:55;;;;;;;8.00;7.22;;;24.00;94.70;;;;;;5094664;28;20257;-82
2022/05/09 09:32:23;;;;;;;9.25;7.03;;;24.20;91.00;;;;;;5094747;28;20659;-82
2022/05/09 09:34:56;;;;;;;8.15;7.35;;;24.40;89.00;;;;;;5077108;28;20203;-82
2022/05/09 09:37:33;;;;;;;7.47;6.78;;;24.50;80.20;;;;;;5095906;28;20189;-82
2022/05/09 09:40:00;;;;;;;8.15;7.22;;;24.50;78.80;;;;;;5095393;28;20269;-82
2022/05/09 09:42:27;;;;;;;7.90;7.07;;;24.20;78.20;;;;;;5095828;28;20196;-83
2022/05/09 09:44:56;;;;;;;7.20;6.55;;;24.40;78.90;;;;;;5100610;28;20220;-81
2022/05/09 09:47:25;;;;;;;7.07;6.40;;;24.70;77.60;;;;;;5111769;28;20204;-82
2022/05/09 09:50:13;;;;;;;8.77;6.80;;;25.20;73.00;;;;;;5118971;28;20272;-82
2022/05/09 09:52:43;;;;;;;7.20;6.50;;;25.50;66.60;;;;;;5117151;28;20200;-82
2022/05/09 09:55:25;;;;;;;8.43;6.65;;;25.40;65.70;;;;;;5118646;28;20213;-82
2022/05/09 09:57:53;;;;;;;6.93;6.00;;;25.50;63.30;;;;;;5116210;28;20214;-81
2022/05/09 10:00:25;;;;;;;7.50;6.10;;;25.60;65.40;;;;;;5116715;28;20204;-82
2022/05/09 10:02:54;;;;;;;5.95;5.32;;;26.10;60.30;;;;;;5102199;28;20184;-82
2022/05/09 10:05:31;;;;;;;7.35;6.55;;;26.60;61.20;;;;;;5095099;28;20254;-82
2022/05/09 10:07:57;;;;;;;7.53;5.78;;;26.50;54.80;;;;;;5094835;28;20196;-82
2022/05/09 10:10:28;;;;;;;6.80;6.13;;;26.40;54.30;;;;;;5095390;28;20197;-82
2022/05/09 10:12:59;;;;;;;6.20;5.53;;;26.00;53.80;;;;;;5094793;28;20603;-81
2022/05/09 10:15:31;;;;;;;5.55;5.05;;;25.80;53.50;;;;;;5095122;28;20609;-82
2022/05/09 10:17:59;;;;;;;5.88;5.28;;;26.40;51.20;;;;;;5094753;28;20283;-83
2022/05/09 10:20:35;;;;;;;6.22;5.72;;;27.00;49.00;;;;;;5094095;28;20564;-82
2022/05/09 10:26:01;;;;;;;7.70;5.38;;;28.00;41.50;;;;;;5093951;28;20551;-82
2022/05/09 10:28:31;;;;;;;5.97;5.45;;;27.20;43.10;;;;;;5093265;28;20255;-81
2022/05/09 10:31:18;;;;;;;8.23;5.60;;;27.30;41.90;;;;;;5093914;28;20200;-82
2022/05/09 10:33:50;;;;;;;6.65;5.90;;;26.90;43.50;;;;;;5094019;28;20666;-81
2022/05/09 10:36:23;;;;;;;6.15;5.55;;;26.70;43.60;;;;;;5094209;28;20192;-82
2022/05/09 10:38:55;;;;;;;6.80;6.18;;;26.50;42.30;;;;;;5094400;28;20253;-82
2022/05/09 10:41:29;;;;;;;6.00;5.40;;;26.10;43.60;;;;;;5094512;28;20241;-82
2022/05/09 10:43:59;;;;;;;5.35;4.85;;;27.20;41.40;;;;;;5094127;28;20687;-82
2022/05/09 10:46:38;;;;;;;5.88;5.35;;;27.40;40.00;;;;;;5094864;28;20196;-81
2022/05/09 10:49:12;;;;;;;8.07;5.13;;;27.10;40.70;;;;;;5113527;28;20184;-81
2022/05/09 10:51:45;;;;;;;5.72;5.15;;;27.20;41.70;;;;;;5104504;28;20228;-82
2022/05/09 10:54:18;;;;;;;5.80;5.20;;;26.90;41.40;;;;;;5098054;28;20249;-82
2022/05/09 10:56:50;;;;;;;5.72;5.22;;;27.30;39.90;;;;;;5100533;28;20204;-81
2022/05/09 10:59:21;;;;;;;6.10;5.50;;;27.40;37.60;;;;;;5103582;28;20227;-82
2022/05/09 11:01:56;;;;;;;5.97;5.43;;;27.20;38.70;;;;;;5103924;28;20230;-79
2022/05/09 11:04:23;;;;;;;5.50;5.00;;;27.70;38.60;;;;;;5099438;28;20230;-82
2022/05/09 11:06:57;;;;;;;5.15;4.35;;;29.40;36.80;;;;;;5094118;28;20204;-81
2022/05/09 11:09:45;;;;;;;5.10;4.70;;;30.80;33.50;;;;;;5094511;28;20195;-80
2022/05/09 11:12:36;;;;;;;4.93;4.47;;;31.50;30.80;;;;;;5093529;28;20242;-80
2022/05/09 11:15:13;;;;;;;6.35;4.72;;;32.40;28.00;;;;;;5093471;28;20230;-82
2022/05/09 11:17:56;;;;;;;6.65;4.43;;;31.70;26.90;;;;;;5093894;28;20214;-82
2022/05/09 11:20:31;;;;;;;4.70;4.30;;;30.20;28.70;;;;;;5093606;28;20196;-82
2022/05/09 11:23:11;;;;;;;5.03;4.63;;;29.30;28.50;;;;;;5094031;28;20191;-82
2022/05/09 11:25:53;;;;;;;5.18;4.68;;;28.40;29.50;;;;;;5094077;28;20223;-83
2022/05/09 11:28:40;;;;;;;6.20;4.28;;;28.00;29.30;;;;;;5094695;28;20196;-82
2022/05/09 11:31:14;;;;;;;5.65;4.32;;;27.60;30.20;;;;;;5094636;28;20258;-82
2022/05/09 11:33:56;;;;;;;5.18;4.38;;;28.90;30.00;;;;;;5110644;28;20184;-82
2022/05/09 11:36:40;;;;;;;4.70;4.10;;;30.60;28.50;;;;;;5117260;28;20176;-81
2022/05/09 11:39:15;;;;;;;5.20;4.28;;;31.60;25.60;;;;;;5114765;28;20210;-81
2022/05/09 11:41:50;;;;;;;4.60;3.63;;;32.00;24.40;;;;;;5121340;28;20183;-83
2022/05/09 11:44:18;;;;;;;6.65;4.15;;;32.50;24.00;;;;;;5119794;28;20257;-79
2022/05/09 11:47:17;;;;;;;4.55;4.13;;;32.70;23.10;;;;;;5117172;28;20218;-81
2022/05/09 11:50:28;;;;;;;4.80;4.30;;;32.30;23.50;;;;;;5099960;28;20196;-81
2022/05/09 11:52:59;;;;;;;4.60;4.07;;;32.10;23.60;;;;;;5085724;28;20192;-82
2022/05/09 11:55:27;;;;;;;5.18;4.00;;;31.60;24.40;;;;;;5096990;28;20254;-82
2022/05/09 11:57:58;;;;;;;5.93;4.28;;;31.80;23.70;;;;;;5096743;28;20203;-81
2022/05/09 12:00:47;;;;;;;5.45;3.92;;;32.50;22.90;;;;;;5096773;28;20230;-82
2022/05/09 12:03:15;;;;;;;5.55;3.67;;;33.70;22.00;;;;;;5096510;28;20269;-81
2022/05/09 12:06:00;;;;;;;4.90;4.10;;;34.00;21.70;;;;;;5096474;28;20320;-81
2022/05/09 12:08:43;;;;;;;4.63;4.03;;;34.70;21.10;;;;;;5096397;28;20268;-80
2022/05/09 12:11:30;;;;;;;4.20;3.80;;;35.50;19.80;;;;;;5096371;28;20196;-80
2022/05/09 12:13:58;;;;;;;4.28;3.90;;;35.90;19.30;;;;;;5096582;28;20248;-81
2022/05/09 12:16:51;;;;;;;4.30;3.90;;;35.80;18.00;;;;;;5096659;28;20195;-80
2022/05/09 12:19:33;;;;;;;5.13;3.95;;;36.20;18.00;;;;;;5096309;28;20203;-80
2022/05/09 12:22:44;;;;;;;5.00;3.70;;;37.10;17.30;;;;;;5096828;28;20188;-80
2022/05/09 12:25:29;;;;;;;6.13;4.10;;;37.30;15.90;;;;;;5096042;28;20257;-81
2022/05/09 12:28:05;;;;;;;4.45;3.60;;;36.90;15.80;;;;;;5095382;28;20196;-81
2022/05/09 12:30:44;;;;;;;3.80;3.47;;;34.70;16.90;;;;;;5096215;28;20203;-81
2022/05/09 12:33:20;;;;;;;4.38;3.60;;;35.30;16.40;;;;;;5096004;28;20196;-81
2022/05/09 12:35:47;;;;;;;5.30;3.72;;;35.40;16.20;;;;;;5095829;28;20199;-81
2022/05/09 12:38:15;;;;;;;5.70;3.80;;;36.00;15.60;;;;;;5096104;28;20264;-81
2022/05/09 12:40:43;;;;;;;4.75;3.80;;;34.50;16.60;;;;;;5095845;28;20724;-81
2022/05/09 12:43:10;;;;;;;5.53;4.03;;;33.00;17.10;;;;;;5096055;28;20253;-81
2022/05/09 12:45:40;;;;;;;4.95;4.43;;;31.80;18.20;;;;;;5095574;28;20234;-81
2022/05/09 12:48:10;;;;;;;5.38;4.00;;;31.30;18.50;;;;;;5095651;28;20206;-81
2022/05/09 12:50:43;;;;;;;3.70;3.40;;;30.20;19.50;;;;;;5096384;28;20235;-82
2022/05/09 12:53:15;;;;;;;4.28;3.88;;;29.70;20.00;;;;;;5112463;28;20265;-81
2022/05/09 12:55:58;;;;;;;5.15;4.57;;;29.10;21.10;;;;;;5118384;28;20196;-82
2022/05/09 12:58:30;;;;;;;5.35;4.60;;;29.10;21.50;;;;;;5119801;28;20192;-81
2022/05/09 13:00:58;;;;;;;5.43;3.83;;;29.70;21.00;;;;;;5116892;28;20184;-81
2022/05/09 13:03:26;;;;;;;4.25;3.85;;;31.40;19.90;;;;;;5101665;28;20203;-79
2022/05/09 13:05:53;;;;;;;6.18;4.47;;;32.50;18.60;;;;;;5114737;28;20249;-82